This is the latest recevied weather packets stored in our database for station/object G6UIM. If no packets are shown the sender has not sent any weather packets the latest 10 day(s).
| Time | Temp. | Humidity | Pressure | Rain* | Wind** | Luminosity | Snow |
|---|---|---|---|---|---|---|---|
| 1777887616 | 15° C | 79% | 1015.3 hPa | 0 mm | - | 758 W/m² | - |
| 1777885816 | 14.44° C | 80% | 1015 hPa | 0 mm | - | 707 W/m² | - |
| 1777882816 | 14.44° C | 82% | 1015 hPa | 0 mm | - | 624 W/m² | - |
| 1777881016 | 12.78° C | 90% | 1014.6 hPa | 0 mm | - | 431 W/m² | - |
| 1777880416 | 11.11° C | 90% | 1014.5 hPa | 0 mm | - | 215 W/m² | - |
| 1777869616 | 9.44° C | 91% | 1013 hPa | 0 mm | - | 0 W/m² | - |
| 1777865415 | 9.44° C | 91% | 1013 hPa | 0 mm | - | 0 W/m² | - |
| 1777861818 | 9.44° C | 91% | 1013 hPa | 0 mm | - | 0 W/m² | - |
| 1777860018 | 9.44° C | 91% | 1013.1 hPa | 0 mm | - | 0 W/m² | - |
| 1777854638 | 10.56° C | 91% | 1012.8 hPa | 0 mm | - | 0 W/m² | - |
| 1777853418 | 10.56° C | 91% | 1012.9 hPa | 0 mm | - | 0 W/m² | - |
| 1777851017 | 11.11° C | 91% | 1013 hPa | 0 mm | - | 0 W/m² | - |
| 1777848017 | 11.11° C | 91% | 1012.6 hPa | 0 mm | - | 0 W/m² | - |
| 1777845617 | 11.67° C | 91% | 1012.5 hPa | 0 mm | - | 0 W/m² | - |
| 1777833616 | 13.33° C | 86% | 1011 hPa | 0 mm | - | 45 W/m² | - |
| 1777833037 | 13.33° C | 86% | 1011 hPa | 0 mm | - | 51 W/m² | - |
| 1777827616 | 13.33° C | 85% | 1010.7 hPa | 0 mm | - | 67 W/m² | - |
| 1777823416 | 14.44° C | 84% | 1010.4 hPa | 0 mm | - | 249 W/m² | - |
| 1777818036 | 14.44° C | 86% | 1011.1 hPa | 0 mm | - | 398 W/m² | - |
| 1777817416 | 14.44° C | 87% | 1011.1 hPa | 0 mm | - | 388 W/m² | - |
| 1777815016 | 14.44° C | 89% | 1011.3 hPa | 0 mm | - | 569 W/m² | - |
| 1777812016 | 12.78° C | 93% | 1011.2 hPa | 0 mm | - | 295 W/m² | - |
| 1777810856 | 12.78° C | 93% | 1011.1 hPa | 0 mm | - | 309 W/m² | - |
| 1777809016 | 12.78° C | 93% | 1011.1 hPa | 0 mm | - | 162 W/m² | - |
| 1777803016 | 11.67° C | 93% | 1011.2 hPa | 0 mm | - | 101 W/m² | - |
* Rain latest hour (hover to see other rain measurements)
** Current wind speed in m/s (hover to see current wind gust speed)